sensor_id;sensor_type;location;lat;lon;timestamp;P1;durP1;ratioP1;P2;durP2;ratioP2
55134;SDS011;41031;44.750;11.308;2023-06-22T00:00:15;12.40;;;8.87;;
55134;SDS011;41031;44.750;11.308;2023-06-22T00:02:42;12.90;;;8.40;;
55134;SDS011;41031;44.750;11.308;2023-06-22T00:05:09;10.77;;;8.53;;
55134;SDS011;41031;44.750;11.308;2023-06-22T00:07:36;12.10;;;8.03;;
55134;SDS011;41031;44.750;11.308;2023-06-22T00:10:03;11.33;;;8.33;;
55134;SDS011;41031;44.750;11.308;2023-06-22T00:12:31;11.23;;;9.40;;
55134;SDS011;41031;44.750;11.308;2023-06-22T00:14:58;15.37;;;9.30;;
55134;SDS011;41031;44.750;11.308;2023-06-22T00:17:25;13.63;;;10.40;;
55134;SDS011;41031;44.750;11.308;2023-06-22T00:19:52;12.97;;;9.53;;
55134;SDS011;41031;44.750;11.308;2023-06-22T00:22:21;10.17;;;8.47;;
55134;SDS011;41031;44.750;11.308;2023-06-22T00:24:55;11.50;;;8.30;;
55134;SDS011;41031;44.750;11.308;2023-06-22T00:27:23;8.90;;;7.70;;
55134;SDS011;41031;44.750;11.308;2023-06-22T00:29:50;11.63;;;8.57;;
55134;SDS011;41031;44.750;11.308;2023-06-22T00:32:18;11.53;;;8.60;;
55134;SDS011;41031;44.750;11.308;2023-06-22T00:34:46;10.07;;;9.03;;
55134;SDS011;41031;44.750;11.308;2023-06-22T00:37:14;13.60;;;9.20;;
55134;SDS011;41031;44.750;11.308;2023-06-22T00:39:41;9.83;;;8.50;;
55134;SDS011;41031;44.750;11.308;2023-06-22T00:42:10;9.50;;;8.57;;
55134;SDS011;41031;44.750;11.308;2023-06-22T00:44:37;10.27;;;9.27;;
55134;SDS011;41031;44.750;11.308;2023-06-22T00:47:04;10.27;;;8.50;;
55134;SDS011;41031;44.750;11.308;2023-06-22T00:49:33;10.67;;;9.57;;
55134;SDS011;41031;44.750;11.308;2023-06-22T00:52:00;10.60;;;9.50;;
55134;SDS011;41031;44.750;11.308;2023-06-22T00:54:27;10.17;;;9.13;;
55134;SDS011;41031;44.750;11.308;2023-06-22T00:56:55;11.93;;;9.73;;
55134;SDS011;41031;44.750;11.308;2023-06-22T00:59:24;11.20;;;9.87;;
55134;SDS011;41031;44.750;11.308;2023-06-22T01:01:52;17.67;;;11.13;;
55134;SDS011;41031;44.750;11.308;2023-06-22T01:04:19;12.97;;;10.67;;
55134;SDS011;41031;44.750;11.308;2023-06-22T01:07:02;13.90;;;10.17;;
55134;SDS011;41031;44.750;11.308;2023-06-22T01:12:59;13.80;;;9.87;;
55134;SDS011;41031;44.750;11.308;2023-06-22T01:15:32;12.70;;;10.47;;
55134;SDS011;41031;44.750;11.308;2023-06-22T01:18:05;15.90;;;11.37;;
55134;SDS011;41031;44.750;11.308;2023-06-22T01:20:35;18.83;;;10.90;;
55134;SDS011;41031;44.750;11.308;2023-06-22T01:31:21;15.70;;;10.10;;
55134;SDS011;41031;44.750;11.308;2023-06-22T01:33:57;16.80;;;10.93;;
55134;SDS011;41031;44.750;11.308;2023-06-22T01:36:30;14.83;;;11.70;;
55134;SDS011;41031;44.750;11.308;2023-06-22T01:38:59;19.37;;;13.93;;
55134;SDS011;41031;44.750;11.308;2023-06-22T01:41:28;15.33;;;11.40;;
55134;SDS011;41031;44.750;11.308;2023-06-22T01:43:57;14.13;;;11.43;;
55134;SDS011;41031;44.750;11.308;2023-06-22T01:46:26;18.33;;;11.93;;
55134;SDS011;41031;44.750;11.308;2023-06-22T01:48:53;16.13;;;13.40;;
55134;SDS011;41031;44.750;11.308;2023-06-22T01:51:21;15.60;;;12.40;;
55134;SDS011;41031;44.750;11.308;2023-06-22T01:53:49;16.27;;;14.20;;
55134;SDS011;41031;44.750;11.308;2023-06-22T01:56:17;17.47;;;15.57;;
55134;SDS011;41031;44.750;11.308;2023-06-22T01:58:50;17.93;;;13.77;;
55134;SDS011;41031;44.750;11.308;2023-06-22T02:01:30;17.80;;;15.40;;
55134;SDS011;41031;44.750;11.308;2023-06-22T02:04:03;17.63;;;15.17;;
55134;SDS011;41031;44.750;11.308;2023-06-22T02:06:38;22.63;;;16.00;;
55134;SDS011;41031;44.750;11.308;2023-06-22T02:09:12;28.70;;;18.17;;
55134;SDS011;41031;44.750;11.308;2023-06-22T02:11:44;22.33;;;18.57;;
55134;SDS011;41031;44.750;11.308;2023-06-22T02:14:13;21.90;;;19.60;;
55134;SDS011;41031;44.750;11.308;2023-06-22T02:16:45;22.00;;;19.27;;
55134;SDS011;41031;44.750;11.308;2023-06-22T02:19:13;22.87;;;20.43;;
55134;SDS011;41031;44.750;11.308;2023-06-22T02:21:45;25.97;;;19.17;;
55134;SDS011;41031;44.750;11.308;2023-06-22T02:24:12;22.47;;;18.53;;
55134;SDS011;41031;44.750;11.308;2023-06-22T02:26:39;19.07;;;17.17;;
55134;SDS011;41031;44.750;11.308;2023-06-22T02:29:08;23.50;;;19.40;;
55134;SDS011;41031;44.750;11.308;2023-06-22T02:31:35;24.83;;;20.03;;
55134;SDS011;41031;44.750;11.308;2023-06-22T02:34:02;23.17;;;19.40;;
55134;SDS011;41031;44.750;11.308;2023-06-22T02:36:29;22.20;;;19.87;;
55134;SDS011;41031;44.750;11.308;2023-06-22T02:38:59;27.03;;;19.43;;
55134;SDS011;41031;44.750;11.308;2023-06-22T02:41:29;22.57;;;19.23;;
55134;SDS011;41031;44.750;11.308;2023-06-22T02:43:56;25.20;;;19.50;;
55134;SDS011;41031;44.750;11.308;2023-06-22T02:46:24;22.73;;;18.90;;
55134;SDS011;41031;44.750;11.308;2023-06-22T02:48:51;26.27;;;19.87;;
55134;SDS011;41031;44.750;11.308;2023-06-22T02:51:19;26.80;;;19.80;;
55134;SDS011;41031;44.750;11.308;2023-06-22T02:53:47;24.40;;;19.13;;
55134;SDS011;41031;44.750;11.308;2023-06-22T02:56:15;24.27;;;18.30;;
55134;SDS011;41031;44.750;11.308;2023-06-22T02:58:44;21.00;;;18.47;;
55134;SDS011;41031;44.750;11.308;2023-06-22T03:01:11;21.43;;;15.67;;
55134;SDS011;41031;44.750;11.308;2023-06-22T03:03:44;20.80;;;17.43;;
55134;SDS011;41031;44.750;11.308;2023-06-22T03:06:11;20.70;;;16.87;;
55134;SDS011;41031;44.750;11.308;2023-06-22T03:08:41;17.53;;;15.70;;
55134;SDS011;41031;44.750;11.308;2023-06-22T03:11:09;18.37;;;15.67;;
55134;SDS011;41031;44.750;11.308;2023-06-22T03:13:36;18.43;;;16.37;;
55134;SDS011;41031;44.750;11.308;2023-06-22T03:16:05;18.00;;;16.10;;
55134;SDS011;41031;44.750;11.308;2023-06-22T03:18:32;20.87;;;16.73;;
55134;SDS011;41031;44.750;11.308;2023-06-22T03:20:59;19.07;;;15.83;;
55134;SDS011;41031;44.750;11.308;2023-06-22T03:23:30;21.47;;;17.07;;
55134;SDS011;41031;44.750;11.308;2023-06-22T03:25:57;17.63;;;15.10;;
55134;SDS011;41031;44.750;11.308;2023-06-22T03:28:24;18.77;;;16.80;;
55134;SDS011;41031;44.750;11.308;2023-06-22T03:30:51;20.63;;;17.70;;
55134;SDS011;41031;44.750;11.308;2023-06-22T03:33:18;25.47;;;15.83;;
55134;SDS011;41031;44.750;11.308;2023-06-22T03:35:45;19.03;;;17.13;;
55134;SDS011;41031;44.750;11.308;2023-06-22T03:38:12;22.83;;;18.30;;
55134;SDS011;41031;44.750;11.308;2023-06-22T03:40:39;20.57;;;18.63;;
55134;SDS011;41031;44.750;11.308;2023-06-22T03:43:06;26.83;;;24.17;;
55134;SDS011;41031;44.750;11.308;2023-06-22T03:45:34;25.33;;;23.07;;
55134;SDS011;41031;44.750;11.308;2023-06-22T03:48:01;24.17;;;22.03;;
55134;SDS011;41031;44.750;11.308;2023-06-22T03:50:30;25.97;;;23.83;;
55134;SDS011;41031;44.750;11.308;2023-06-22T03:52:58;25.10;;;22.70;;
55134;SDS011;41031;44.750;11.308;2023-06-22T03:55:25;21.57;;;19.47;;
55134;SDS011;41031;44.750;11.308;2023-06-22T03:57:52;24.57;;;22.37;;
55134;SDS011;41031;44.750;11.308;2023-06-22T04:00:20;24.80;;;22.13;;
55134;SDS011;41031;44.750;11.308;2023-06-22T04:02:47;34.23;;;31.37;;
55134;SDS011;41031;44.750;11.308;2023-06-22T04:05:15;38.10;;;35.00;;
55134;SDS011;41031;44.750;11.308;2023-06-22T04:07:43;48.87;;;45.13;;
55134;SDS011;41031;44.750;11.308;2023-06-22T04:10:10;54.50;;;50.83;;
55134;SDS011;41031;44.750;11.308;2023-06-22T04:12:39;56.33;;;52.73;;
55134;SDS011;41031;44.750;11.308;2023-06-22T04:15:06;60.83;;;56.80;;
55134;SDS011;41031;44.750;11.308;2023-06-22T04:17:33;69.17;;;64.20;;
55134;SDS011;41031;44.750;11.308;2023-06-22T04:20:00;83.47;;;78.47;;
55134;SDS011;41031;44.750;11.308;2023-06-22T04:22:27;82.63;;;77.77;;
55134;SDS011;41031;44.750;11.308;2023-06-22T04:24:54;309.10;;;294.17;;
55134;SDS011;41031;44.750;11.308;2023-06-22T04:27:21;356.93;;;339.80;;
55134;SDS011;41031;44.750;11.308;2023-06-22T04:29:49;364.50;;;347.27;;
55134;SDS011;41031;44.750;11.308;2023-06-22T04:32:17;337.17;;;320.90;;
55134;SDS011;41031;44.750;11.308;2023-06-22T04:34:45;302.20;;;287.73;;
55134;SDS011;41031;44.750;11.308;2023-06-22T04:37:12;54.87;;;50.70;;
55134;SDS011;41031;44.750;11.308;2023-06-22T04:39:42;19.03;;;16.80;;
55134;SDS011;41031;44.750;11.308;2023-06-22T04:42:10;19.20;;;17.17;;
55134;SDS011;41031;44.750;11.308;2023-06-22T04:44:38;21.93;;;17.93;;
55134;SDS011;41031;44.750;11.308;2023-06-22T04:47:06;21.17;;;17.97;;
55134;SDS011;41031;44.750;11.308;2023-06-22T04:49:35;25.87;;;17.77;;
55134;SDS011;41031;44.750;11.308;2023-06-22T04:52:04;26.60;;;19.20;;
55134;SDS011;41031;44.750;11.308;2023-06-22T04:54:32;29.43;;;19.07;;
55134;SDS011;41031;44.750;11.308;2023-06-22T04:57:00;26.73;;;20.47;;
55134;SDS011;41031;44.750;11.308;2023-06-22T04:59:29;20.60;;;18.43;;
55134;SDS011;41031;44.750;11.308;2023-06-22T05:01:57;23.43;;;19.03;;
55134;SDS011;41031;44.750;11.308;2023-06-22T05:04:26;24.07;;;21.40;;
55134;SDS011;41031;44.750;11.308;2023-06-22T05:06:58;25.37;;;22.37;;
55134;SDS011;41031;44.750;11.308;2023-06-22T05:09:29;27.53;;;21.57;;
55134;SDS011;41031;44.750;11.308;2023-06-22T05:11:57;28.60;;;22.93;;
55134;SDS011;41031;44.750;11.308;2023-06-22T05:14:24;26.50;;;22.60;;
55134;SDS011;41031;44.750;11.308;2023-06-22T05:16:51;27.53;;;23.50;;
55134;SDS011;41031;44.750;11.308;2023-06-22T05:19:18;28.47;;;22.27;;
55134;SDS011;41031;44.750;11.308;2023-06-22T05:21:45;29.10;;;25.10;;
55134;SDS011;41031;44.750;11.308;2023-06-22T05:24:12;28.50;;;25.33;;
55134;SDS011;41031;44.750;11.308;2023-06-22T05:26:39;29.67;;;22.90;;
55134;SDS011;41031;44.750;11.308;2023-06-22T05:29:06;31.23;;;25.00;;
55134;SDS011;41031;44.750;11.308;2023-06-22T05:31:34;28.80;;;24.80;;
55134;SDS011;41031;44.750;11.308;2023-06-22T05:34:01;26.57;;;23.70;;
55134;SDS011;41031;44.750;11.308;2023-06-22T05:36:28;28.40;;;23.83;;
55134;SDS011;41031;44.750;11.308;2023-06-22T05:38:56;27.40;;;24.60;;
55134;SDS011;41031;44.750;11.308;2023-06-22T05:41:24;31.23;;;26.60;;
55134;SDS011;41031;44.750;11.308;2023-06-22T05:43:51;29.53;;;26.30;;
55134;SDS011;41031;44.750;11.308;2023-06-22T05:46:19;31.97;;;24.50;;
55134;SDS011;41031;44.750;11.308;2023-06-22T05:48:46;31.43;;;26.23;;
55134;SDS011;41031;44.750;11.308;2023-06-22T05:51:13;29.70;;;26.63;;
55134;SDS011;41031;44.750;11.308;2023-06-22T05:53:40;33.23;;;27.00;;
55134;SDS011;41031;44.750;11.308;2023-06-22T05:56:07;35.27;;;26.57;;
55134;SDS011;41031;44.750;11.308;2023-06-22T05:58:35;30.00;;;26.13;;
55134;SDS011;41031;44.750;11.308;2023-06-22T06:01:02;32.93;;;27.77;;
55134;SDS011;41031;44.750;11.308;2023-06-22T06:03:29;32.33;;;28.83;;
55134;SDS011;41031;44.750;11.308;2023-06-22T06:05:56;32.30;;;28.83;;
55134;SDS011;41031;44.750;11.308;2023-06-22T06:08:23;31.73;;;28.37;;
55134;SDS011;41031;44.750;11.308;2023-06-22T06:10:51;34.60;;;28.50;;
55134;SDS011;41031;44.750;11.308;2023-06-22T06:13:20;34.20;;;28.57;;
55134;SDS011;41031;44.750;11.308;2023-06-22T06:15:47;35.33;;;29.53;;
55134;SDS011;41031;44.750;11.308;2023-06-22T06:18:14;33.97;;;30.30;;
55134;SDS011;41031;44.750;11.308;2023-06-22T06:20:41;34.47;;;29.00;;
55134;SDS011;41031;44.750;11.308;2023-06-22T06:23:08;33.77;;;28.00;;
55134;SDS011;41031;44.750;11.308;2023-06-22T06:25:35;36.00;;;29.23;;
55134;SDS011;41031;44.750;11.308;2023-06-22T06:28:02;34.90;;;29.67;;
55134;SDS011;41031;44.750;11.308;2023-06-22T06:30:30;30.43;;;27.07;;
55134;SDS011;41031;44.750;11.308;2023-06-22T06:32:58;32.73;;;29.17;;
55134;SDS011;41031;44.750;11.308;2023-06-22T06:35:25;33.93;;;27.73;;
55134;SDS011;41031;44.750;11.308;2023-06-22T06:37:52;36.63;;;29.87;;
55134;SDS011;41031;44.750;11.308;2023-06-22T06:40:20;33.80;;;28.37;;
55134;SDS011;41031;44.750;11.308;2023-06-22T06:42:47;34.30;;;27.00;;
55134;SDS011;41031;44.750;11.308;2023-06-22T06:45:18;30.80;;;27.70;;
55134;SDS011;41031;44.750;11.308;2023-06-22T06:47:49;31.27;;;28.07;;
55134;SDS011;41031;44.750;11.308;2023-06-22T06:50:17;32.20;;;28.67;;
55134;SDS011;41031;44.750;11.308;2023-06-22T06:52:45;32.43;;;29.07;;
55134;SDS011;41031;44.750;11.308;2023-06-22T06:55:12;34.67;;;31.30;;
55134;SDS011;41031;44.750;11.308;2023-06-22T06:57:41;41.57;;;37.63;;
55134;SDS011;41031;44.750;11.308;2023-06-22T07:00:09;42.87;;;38.77;;
55134;SDS011;41031;44.750;11.308;2023-06-22T07:02:43;50.27;;;46.30;;
55134;SDS011;41031;44.750;11.308;2023-06-22T07:05:12;73.10;;;66.87;;
55134;SDS011;41031;44.750;11.308;2023-06-22T07:07:40;173.67;;;163.20;;
55134;SDS011;41031;44.750;11.308;2023-06-22T07:10:08;246.57;;;232.60;;
55134;SDS011;41031;44.750;11.308;2023-06-22T07:12:36;463.03;;;438.90;;
55134;SDS011;41031;44.750;11.308;2023-06-22T07:15:04;474.33;;;448.53;;
55134;SDS011;41031;44.750;11.308;2023-06-22T07:17:35;478.03;;;452.80;;
55134;SDS011;41031;44.750;11.308;2023-06-22T07:20:03;341.10;;;323.47;;
55134;SDS011;41031;44.750;11.308;2023-06-22T07:22:37;209.50;;;198.27;;
55134;SDS011;41031;44.750;11.308;2023-06-22T07:25:05;207.10;;;196.10;;
55134;SDS011;41031;44.750;11.308;2023-06-22T07:27:36;200.13;;;189.87;;
55134;SDS011;41031;44.750;11.308;2023-06-22T07:30:04;181.27;;;171.03;;
55134;SDS011;41031;44.750;11.308;2023-06-22T07:32:32;159.70;;;150.90;;
55134;SDS011;41031;44.750;11.308;2023-06-22T07:34:59;197.30;;;186.07;;
55134;SDS011;41031;44.750;11.308;2023-06-22T07:37:26;170.80;;;161.60;;
55134;SDS011;41031;44.750;11.308;2023-06-22T07:39:55;219.00;;;208.13;;
55134;SDS011;41031;44.750;11.308;2023-06-22T07:42:25;237.07;;;224.40;;
55134;SDS011;41031;44.750;11.308;2023-06-22T07:44:53;228.47;;;216.23;;
55134;SDS011;41031;44.750;11.308;2023-06-22T07:47:21;232.60;;;221.07;;
55134;SDS011;41031;44.750;11.308;2023-06-22T07:49:51;207.50;;;197.03;;
55134;SDS011;41031;44.750;11.308;2023-06-22T07:52:21;224.13;;;213.03;;
55134;SDS011;41031;44.750;11.308;2023-06-22T07:54:48;219.43;;;207.77;;
55134;SDS011;41031;44.750;11.308;2023-06-22T07:57:15;316.53;;;300.07;;
55134;SDS011;41031;44.750;11.308;2023-06-22T07:59:42;331.33;;;313.77;;
55134;SDS011;41031;44.750;11.308;2023-06-22T08:02:09;346.73;;;328.50;;
55134;SDS011;41031;44.750;11.308;2023-06-22T08:04:36;385.37;;;364.67;;
55134;SDS011;41031;44.750;11.308;2023-06-22T08:07:04;497.00;;;470.10;;
55134;SDS011;41031;44.750;11.308;2023-06-22T08:09:31;620.37;;;586.00;;
55134;SDS011;41031;44.750;11.308;2023-06-22T08:11:59;566.17;;;535.27;;
55134;SDS011;41031;44.750;11.308;2023-06-22T08:14:26;781.63;;;731.93;;
55134;SDS011;41031;44.750;11.308;2023-06-22T08:16:54;345.40;;;324.00;;
55134;SDS011;41031;44.750;11.308;2023-06-22T08:19:21;150.40;;;140.53;;
55134;SDS011;41031;44.750;11.308;2023-06-22T08:21:48;222.77;;;208.60;;
55134;SDS011;41031;44.750;11.308;2023-06-22T08:24:15;55.50;;;51.37;;
55134;SDS011;41031;44.750;11.308;2023-06-22T08:26:42;61.63;;;57.07;;
55134;SDS011;41031;44.750;11.308;2023-06-22T08:29:09;42.13;;;39.00;;
55134;SDS011;41031;44.750;11.308;2023-06-22T08:31:37;39.03;;;35.63;;
55134;SDS011;41031;44.750;11.308;2023-06-22T08:34:04;22.77;;;17.47;;
55134;SDS011;41031;44.750;11.308;2023-06-22T08:36:31;20.83;;;16.07;;
55134;SDS011;41031;44.750;11.308;2023-06-22T08:39:01;20.67;;;18.50;;
55134;SDS011;41031;44.750;11.308;2023-06-22T08:41:29;20.53;;;16.23;;
55134;SDS011;41031;44.750;11.308;2023-06-22T08:43:57;18.20;;;16.30;;
55134;SDS011;41031;44.750;11.308;2023-06-22T08:46:24;20.77;;;18.20;;
55134;SDS011;41031;44.750;11.308;2023-06-22T08:48:57;20.97;;;16.53;;
55134;SDS011;41031;44.750;11.308;2023-06-22T08:51:24;36.80;;;18.80;;
55134;SDS011;41031;44.750;11.308;2023-06-22T08:53:51;23.27;;;17.20;;
55134;SDS011;41031;44.750;11.308;2023-06-22T08:56:18;23.60;;;19.23;;
55134;SDS011;41031;44.750;11.308;2023-06-22T08:58:46;21.97;;;19.37;;
55134;SDS011;41031;44.750;11.308;2023-06-22T09:01:13;25.33;;;18.33;;
55134;SDS011;41031;44.750;11.308;2023-06-22T09:03:41;22.00;;;16.30;;
55134;SDS011;41031;44.750;11.308;2023-06-22T09:06:09;26.58;;;21.17;;
55134;SDS011;41031;44.750;11.308;2023-06-22T09:08:36;22.77;;;14.70;;
55134;SDS011;41031;44.750;11.308;2023-06-22T09:11:03;24.27;;;17.37;;
55134;SDS011;41031;44.750;11.308;2023-06-22T09:13:31;24.07;;;14.87;;
55134;SDS011;41031;44.750;11.308;2023-06-22T09:15:59;22.07;;;15.00;;
55134;SDS011;41031;44.750;11.308;2023-06-22T09:18:26;24.97;;;15.10;;
55134;SDS011;41031;44.750;11.308;2023-06-22T09:20:53;23.80;;;14.03;;
55134;SDS011;41031;44.750;11.308;2023-06-22T09:23:20;20.40;;;12.63;;
55134;SDS011;41031;44.750;11.308;2023-06-22T09:25:48;21.35;;;12.18;;
55134;SDS011;41031;44.750;11.308;2023-06-22T09:28:15;16.00;;;11.43;;
55134;SDS011;41031;44.750;11.308;2023-06-22T09:30:45;19.40;;;10.73;;
55134;SDS011;41031;44.750;11.308;2023-06-22T09:33:12;15.35;;;10.73;;
55134;SDS011;41031;44.750;11.308;2023-06-22T09:35:39;15.48;;;10.07;;
55134;SDS011;41031;44.750;11.308;2023-06-22T09:38:06;18.10;;;11.40;;
55134;SDS011;41031;44.750;11.308;2023-06-22T09:40:33;12.77;;;9.88;;
55134;SDS011;41031;44.750;11.308;2023-06-22T09:43:06;16.42;;;11.07;;
55134;SDS011;41031;44.750;11.308;2023-06-22T09:45:33;15.00;;;9.82;;
55134;SDS011;41031;44.750;11.308;2023-06-22T09:48:00;11.95;;;10.23;;
55134;SDS011;41031;44.750;11.308;2023-06-22T09:50:27;19.20;;;13.75;;
55134;SDS011;41031;44.750;11.308;2023-06-22T09:52:55;13.35;;;11.13;;
55134;SDS011;41031;44.750;11.308;2023-06-22T09:55:22;19.60;;;13.30;;
55134;SDS011;41031;44.750;11.308;2023-06-22T09:57:49;15.35;;;12.50;;
55134;SDS011;41031;44.750;11.308;2023-06-22T10:00:16;14.95;;;11.02;;
55134;SDS011;41031;44.750;11.308;2023-06-22T10:02:45;15.88;;;12.77;;
55134;SDS011;41031;44.750;11.308;2023-06-22T10:05:13;16.13;;;11.27;;
55134;SDS011;41031;44.750;11.308;2023-06-22T10:07:40;19.75;;;11.25;;
55134;SDS011;41031;44.750;11.308;2023-06-22T10:10:10;17.80;;;10.68;;
55134;SDS011;41031;44.750;11.308;2023-06-22T10:12:42;14.20;;;10.75;;
55134;SDS011;41031;44.750;11.308;2023-06-22T10:15:14;19.75;;;10.85;;
55134;SDS011;41031;44.750;11.308;2023-06-22T10:17:42;16.67;;;9.68;;
55134;SDS011;41031;44.750;11.308;2023-06-22T10:20:09;19.05;;;9.95;;
55134;SDS011;41031;44.750;11.308;2023-06-22T10:22:40;11.63;;;9.57;;
55134;SDS011;41031;44.750;11.308;2023-06-22T10:25:09;11.52;;;9.70;;
55134;SDS011;41031;44.750;11.308;2023-06-22T10:27:37;12.77;;;9.65;;
55134;SDS011;41031;44.750;11.308;2023-06-22T10:30:09;12.00;;;8.75;;
55134;SDS011;41031;44.750;11.308;2023-06-22T10:32:41;12.93;;;8.73;;
55134;SDS011;41031;44.750;11.308;2023-06-22T10:35:12;13.75;;;9.07;;
55134;SDS011;41031;44.750;11.308;2023-06-22T10:37:45;11.75;;;8.63;;
55134;SDS011;41031;44.750;11.308;2023-06-22T10:40:13;15.05;;;8.23;;
55134;SDS011;41031;44.750;11.308;2023-06-22T10:42:42;11.70;;;8.57;;
55134;SDS011;41031;44.750;11.308;2023-06-22T10:45:09;12.88;;;8.77;;
55134;SDS011;41031;44.750;11.308;2023-06-22T10:47:37;10.05;;;7.32;;
55134;SDS011;41031;44.750;11.308;2023-06-22T10:50:04;18.90;;;8.85;;
55134;SDS011;41031;44.750;11.308;2023-06-22T10:52:32;12.32;;;8.85;;
55134;SDS011;41031;44.750;11.308;2023-06-22T10:54:59;12.85;;;8.73;;
55134;SDS011;41031;44.750;11.308;2023-06-22T10:57:26;15.45;;;9.10;;
55134;SDS011;41031;44.750;11.308;2023-06-22T10:59:53;15.60;;;8.02;;
55134;SDS011;41031;44.750;11.308;2023-06-22T11:02:20;11.85;;;8.32;;
55134;SDS011;41031;44.750;11.308;2023-06-22T11:04:47;10.27;;;8.88;;
55134;SDS011;41031;44.750;11.308;2023-06-22T11:07:15;11.63;;;8.00;;
55134;SDS011;41031;44.750;11.308;2023-06-22T11:09:44;12.23;;;8.15;;
55134;SDS011;41031;44.750;11.308;2023-06-22T11:12:11;21.02;;;9.48;;
55134;SDS011;41031;44.750;11.308;2023-06-22T11:14:39;12.55;;;8.65;;
55134;SDS011;41031;44.750;11.308;2023-06-22T11:17:06;14.73;;;8.27;;
55134;SDS011;41031;44.750;11.308;2023-06-22T11:19:33;11.15;;;7.68;;
55134;SDS011;41031;44.750;11.308;2023-06-22T11:22:00;12.25;;;8.40;;
55134;SDS011;41031;44.750;11.308;2023-06-22T11:24:27;13.38;;;8.40;;
55134;SDS011;41031;44.750;11.308;2023-06-22T11:26:54;14.98;;;8.10;;
55134;SDS011;41031;44.750;11.308;2023-06-22T11:29:24;18.83;;;8.18;;
55134;SDS011;41031;44.750;11.308;2023-06-22T11:32:03;13.05;;;8.05;;
55134;SDS011;41031;44.750;11.308;2023-06-22T11:34:31;14.85;;;7.47;;
55134;SDS011;41031;44.750;11.308;2023-06-22T11:36:59;15.88;;;7.60;;
55134;SDS011;41031;44.750;11.308;2023-06-22T11:39:25;8.85;;;7.10;;
55134;SDS011;41031;44.750;11.308;2023-06-22T11:42:06;13.93;;;8.50;;
55134;SDS011;41031;44.750;11.308;2023-06-22T11:44:34;10.05;;;7.03;;
55134;SDS011;41031;44.750;11.308;2023-06-22T11:47:01;11.88;;;7.60;;
55134;SDS011;41031;44.750;11.308;2023-06-22T11:49:30;10.02;;;7.28;;
55134;SDS011;41031;44.750;11.308;2023-06-22T11:51:58;15.40;;;7.13;;
55134;SDS011;41031;44.750;11.308;2023-06-22T11:54:25;17.02;;;7.82;;
55134;SDS011;41031;44.750;11.308;2023-06-22T11:56:52;9.38;;;6.88;;
55134;SDS011;41031;44.750;11.308;2023-06-22T11:59:19;9.82;;;7.25;;
55134;SDS011;41031;44.750;11.308;2023-06-22T12:01:48;18.10;;;7.05;;
55134;SDS011;41031;44.750;11.308;2023-06-22T12:04:17;11.90;;;7.13;;
55134;SDS011;41031;44.750;11.308;2023-06-22T12:06:45;13.75;;;8.05;;
55134;SDS011;41031;44.750;11.308;2023-06-22T12:09:12;10.55;;;6.63;;
55134;SDS011;41031;44.750;11.308;2023-06-22T12:11:40;7.45;;;6.75;;
55134;SDS011;41031;44.750;11.308;2023-06-22T12:14:07;17.75;;;6.85;;
55134;SDS011;41031;44.750;11.308;2023-06-22T12:16:34;11.05;;;7.10;;
55134;SDS011;41031;44.750;11.308;2023-06-22T12:19:01;13.10;;;7.03;;
55134;SDS011;41031;44.750;11.308;2023-06-22T12:21:28;9.23;;;6.55;;
55134;SDS011;41031;44.750;11.308;2023-06-22T12:23:55;14.88;;;6.72;;
55134;SDS011;41031;44.750;11.308;2023-06-22T12:26:22;8.75;;;6.47;;
55134;SDS011;41031;44.750;11.308;2023-06-22T12:28:49;11.55;;;6.80;;
55134;SDS011;41031;44.750;11.308;2023-06-22T12:31:17;8.18;;;7.13;;
55134;SDS011;41031;44.750;11.308;2023-06-22T12:33:44;11.48;;;6.70;;
55134;SDS011;41031;44.750;11.308;2023-06-22T12:36:11;10.60;;;6.95;;
55134;SDS011;41031;44.750;11.308;2023-06-22T12:38:38;13.13;;;6.25;;
55134;SDS011;41031;44.750;11.308;2023-06-22T12:41:05;13.75;;;6.93;;
55134;SDS011;41031;44.750;11.308;2023-06-22T12:43:32;9.35;;;6.75;;
55134;SDS011;41031;44.750;11.308;2023-06-22T12:45:59;15.65;;;7.18;;
55134;SDS011;41031;44.750;11.308;2023-06-22T12:48:27;10.60;;;6.72;;
55134;SDS011;41031;44.750;11.308;2023-06-22T12:50:54;11.98;;;6.75;;
55134;SDS011;41031;44.750;11.308;2023-06-22T12:53:21;8.68;;;6.55;;
55134;SDS011;41031;44.750;11.308;2023-06-22T12:55:50;6.80;;;6.10;;
55134;SDS011;41031;44.750;11.308;2023-06-22T12:58:17;10.48;;;6.28;;
55134;SDS011;41031;44.750;11.308;2023-06-22T13:00:44;10.45;;;6.85;;
55134;SDS011;41031;44.750;11.308;2023-06-22T13:03:11;8.60;;;6.35;;
55134;SDS011;41031;44.750;11.308;2023-06-22T13:05:39;13.27;;;6.85;;
55134;SDS011;41031;44.750;11.308;2023-06-22T13:08:06;9.35;;;6.60;;
55134;SDS011;41031;44.750;11.308;2023-06-22T13:10:33;8.52;;;5.90;;
55134;SDS011;41031;44.750;11.308;2023-06-22T13:13:00;8.80;;;6.47;;
55134;SDS011;41031;44.750;11.308;2023-06-22T13:15:28;7.55;;;5.55;;
55134;SDS011;41031;44.750;11.308;2023-06-22T13:17:56;13.23;;;6.15;;
55134;SDS011;41031;44.750;11.308;2023-06-22T13:20:23;13.30;;;6.68;;
55134;SDS011;41031;44.750;11.308;2023-06-22T13:22:50;10.23;;;6.13;;
55134;SDS011;41031;44.750;11.308;2023-06-22T13:25:17;13.32;;;6.45;;
55134;SDS011;41031;44.750;11.308;2023-06-22T13:27:46;13.25;;;5.93;;
55134;SDS011;41031;44.750;11.308;2023-06-22T13:30:14;12.35;;;5.68;;
55134;SDS011;41031;44.750;11.308;2023-06-22T13:32:41;10.65;;;5.63;;
55134;SDS011;41031;44.750;11.308;2023-06-22T13:35:09;15.50;;;5.90;;
55134;SDS011;41031;44.750;11.308;2023-06-22T13:37:37;7.72;;;5.82;;
55134;SDS011;41031;44.750;11.308;2023-06-22T13:40:05;12.35;;;6.55;;
55134;SDS011;41031;44.750;11.308;2023-06-22T13:42:33;8.20;;;5.38;;
55134;SDS011;41031;44.750;11.308;2023-06-22T13:45:00;16.48;;;5.82;;
55134;SDS011;41031;44.750;11.308;2023-06-22T13:47:28;11.32;;;6.32;;
55134;SDS011;41031;44.750;11.308;2023-06-22T13:49:57;12.25;;;5.60;;
55134;SDS011;41031;44.750;11.308;2023-06-22T13:52:25;10.38;;;5.35;;
55134;SDS011;41031;44.750;11.308;2023-06-22T13:54:52;9.23;;;5.78;;
55134;SDS011;41031;44.750;11.308;2023-06-22T13:57:19;9.30;;;5.47;;
55134;SDS011;41031;44.750;11.308;2023-06-22T13:59:46;10.75;;;6.22;;
55134;SDS011;41031;44.750;11.308;2023-06-22T14:02:13;12.75;;;6.78;;
55134;SDS011;41031;44.750;11.308;2023-06-22T14:04:40;11.18;;;5.93;;
55134;SDS011;41031;44.750;11.308;2023-06-22T14:07:07;9.27;;;5.90;;
55134;SDS011;41031;44.750;11.308;2023-06-22T14:09:35;11.18;;;6.43;;
55134;SDS011;41031;44.750;11.308;2023-06-22T14:12:05;1999.90;;;999.90;;
55134;SDS011;41031;44.750;11.308;2023-06-22T14:14:33;1999.90;;;999.90;;
55134;SDS011;41031;44.750;11.308;2023-06-22T14:17:01;1999.90;;;999.90;;
55134;SDS011;41031;44.750;11.308;2023-06-22T14:19:28;1999.90;;;999.90;;
55134;SDS011;41031;44.750;11.308;2023-06-22T14:21:55;1999.90;;;999.90;;
55134;SDS011;41031;44.750;11.308;2023-06-22T14:24:23;1999.90;;;999.90;;
55134;SDS011;41031;44.750;11.308;2023-06-22T14:26:53;1999.90;;;999.90;;